プライア の空港の天気 - METARとTAF

プライア国際空港 ( GVNP / RAI ) - カーボベルデ サンティアゴ島, プライア
飛行場実況気象(Metar)
観測時間05/17 13:00 CVT (05/17 14:00 UTC)
風向・風速北北東 9m/s
視程10km以上
天気現象
少しの雲 雲底高度 490m
気温28℃
湿度51%
気圧1015hPa
METARGVNP 171400Z 03017KT 9999 FEW016 28/17 Q1015 NOSIG
過去の天気等 Google飛行場航空写真 Wunderground天気予報

過去48時間のMETAR

飛行場予報(TAF)
発表時間: 5/17 10:00 CVT (5/17 11:00 UTC)
予報対象時間: 17日11時 CVT ~ 18日17時 CVT
風向・風速北 9m/s
視程10km以上
なし
17日21時 CVT ~ 18日6時 CVT に一時的に
風向・風速北 4m/s
視程10km以上
少しの雲 雲底高度 490m
TAF GVNP 171100Z 1712/1818 01018KT CAVOK
TEMPO 1722/1807 01008KT 9999 FEW016